sensor_id;sensor_type;location;lat;lon;timestamp;P1;durP1;ratioP1;P2;durP2;ratioP2
55063;SDS011;40963;52.168;21.296;2023-02-28T00:01:16;67.18;;;26.00;;
55063;SDS011;40963;52.168;21.296;2023-02-28T00:03:42;67.32;;;25.13;;
55063;SDS011;40963;52.168;21.296;2023-02-28T00:06:08;59.35;;;22.42;;
55063;SDS011;40963;52.168;21.296;2023-02-28T00:08:37;45.15;;;16.85;;
55063;SDS011;40963;52.168;21.296;2023-02-28T00:11:07;43.20;;;16.25;;
55063;SDS011;40963;52.168;21.296;2023-02-28T00:13:36;17.85;;;9.52;;
55063;SDS011;40963;52.168;21.296;2023-02-28T00:16:07;40.13;;;16.45;;
55063;SDS011;40963;52.168;21.296;2023-02-28T00:18:35;20.95;;;9.55;;
55063;SDS011;40963;52.168;21.296;2023-02-28T00:21:01;40.80;;;12.30;;
55063;SDS011;40963;52.168;21.296;2023-02-28T00:23:27;12.15;;;7.68;;
55063;SDS011;40963;52.168;21.296;2023-02-28T00:25:53;49.25;;;16.15;;
55063;SDS011;40963;52.168;21.296;2023-02-28T00:28:19;15.40;;;7.72;;
55063;SDS011;40963;52.168;21.296;2023-02-28T00:30:44;11.50;;;4.53;;
55063;SDS011;40963;52.168;21.296;2023-02-28T00:33:10;29.95;;;13.40;;
55063;SDS011;40963;52.168;21.296;2023-02-28T00:35:36;60.97;;;25.00;;
55063;SDS011;40963;52.168;21.296;2023-02-28T00:38:02;59.88;;;24.23;;
55063;SDS011;40963;52.168;21.296;2023-02-28T00:40:28;34.58;;;11.93;;
55063;SDS011;40963;52.168;21.296;2023-02-28T00:42:53;9.57;;;5.82;;
55063;SDS011;40963;52.168;21.296;2023-02-28T00:45:19;71.95;;;27.23;;
55063;SDS011;40963;52.168;21.296;2023-02-28T00:47:45;73.50;;;26.90;;
55063;SDS011;40963;52.168;21.296;2023-02-28T00:50:14;76.55;;;28.58;;
55063;SDS011;40963;52.168;21.296;2023-02-28T00:52:43;71.32;;;26.55;;
55063;SDS011;40963;52.168;21.296;2023-02-28T00:55:09;66.68;;;26.95;;
55063;SDS011;40963;52.168;21.296;2023-02-28T00:57:35;70.40;;;25.20;;
55063;SDS011;40963;52.168;21.296;2023-02-28T01:00:01;25.45;;;12.07;;
55063;SDS011;40963;52.168;21.296;2023-02-28T01:02:28;42.25;;;15.32;;
55063;SDS011;40963;52.168;21.296;2023-02-28T01:04:54;51.67;;;15.70;;
55063;SDS011;40963;52.168;21.296;2023-02-28T01:07:19;17.38;;;8.77;;
55063;SDS011;40963;52.168;21.296;2023-02-28T01:09:45;49.65;;;16.42;;
55063;SDS011;40963;52.168;21.296;2023-02-28T01:12:11;68.13;;;23.30;;
55063;SDS011;40963;52.168;21.296;2023-02-28T01:14:36;19.17;;;9.48;;
55063;SDS011;40963;52.168;21.296;2023-02-28T01:17:02;68.65;;;25.15;;
55063;SDS011;40963;52.168;21.296;2023-02-28T01:19:28;40.08;;;14.35;;
55063;SDS011;40963;52.168;21.296;2023-02-28T01:21:54;85.15;;;29.20;;
55063;SDS011;40963;52.168;21.296;2023-02-28T01:24:19;80.70;;;26.42;;
55063;SDS011;40963;52.168;21.296;2023-02-28T01:26:45;77.38;;;25.63;;
55063;SDS011;40963;52.168;21.296;2023-02-28T01:29:11;62.20;;;23.30;;
55063;SDS011;40963;52.168;21.296;2023-02-28T01:31:36;69.43;;;26.98;;
55063;SDS011;40963;52.168;21.296;2023-02-28T01:34:02;86.70;;;27.88;;
55063;SDS011;40963;52.168;21.296;2023-02-28T01:36:28;46.40;;;19.02;;
55063;SDS011;40963;52.168;21.296;2023-02-28T01:38:54;61.60;;;21.83;;
55063;SDS011;40963;52.168;21.296;2023-02-28T01:41:24;60.42;;;19.92;;
55063;SDS011;40963;52.168;21.296;2023-02-28T01:46:21;49.80;;;16.88;;
55063;SDS011;40963;52.168;21.296;2023-02-28T01:48:51;40.58;;;14.68;;
55063;SDS011;40963;52.168;21.296;2023-02-28T01:51:44;36.40;;;15.35;;
55063;SDS011;40963;52.168;21.296;2023-02-28T01:54:36;40.17;;;16.00;;
55063;SDS011;40963;52.168;21.296;2023-02-28T01:57:03;36.10;;;14.57;;
55063;SDS011;40963;52.168;21.296;2023-02-28T01:59:34;41.80;;;14.57;;
55063;SDS011;40963;52.168;21.296;2023-02-28T02:02:01;41.80;;;14.40;;
55063;SDS011;40963;52.168;21.296;2023-02-28T02:04:34;40.05;;;15.15;;
55063;SDS011;40963;52.168;21.296;2023-02-28T02:07:05;39.47;;;14.20;;
55063;SDS011;40963;52.168;21.296;2023-02-28T02:09:31;43.90;;;14.73;;
55063;SDS011;40963;52.168;21.296;2023-02-28T02:11:56;39.35;;;16.05;;
55063;SDS011;40963;52.168;21.296;2023-02-28T02:14:31;45.95;;;15.02;;
55063;SDS011;40963;52.168;21.296;2023-02-28T02:31:12;37.60;;;15.27;;
55063;SDS011;40963;52.168;21.296;2023-02-28T02:36:54;44.55;;;14.90;;
55063;SDS011;40963;52.168;21.296;2023-02-28T02:42:43;52.28;;;16.95;;
55063;SDS011;40963;52.168;21.296;2023-02-28T02:45:18;49.30;;;17.88;;
55063;SDS011;40963;52.168;21.296;2023-02-28T02:48:01;43.10;;;16.48;;
55063;SDS011;40963;52.168;21.296;2023-02-28T02:50:38;35.78;;;15.15;;
55063;SDS011;40963;52.168;21.296;2023-02-28T02:53:07;48.60;;;16.90;;
55063;SDS011;40963;52.168;21.296;2023-02-28T02:55:37;52.10;;;19.48;;
55063;SDS011;40963;52.168;21.296;2023-02-28T02:58:08;56.00;;;18.27;;
55063;SDS011;40963;52.168;21.296;2023-02-28T03:00:39;55.83;;;17.50;;
55063;SDS011;40963;52.168;21.296;2023-02-28T03:03:08;54.17;;;18.42;;
55063;SDS011;40963;52.168;21.296;2023-02-28T03:05:44;65.95;;;20.75;;
55063;SDS011;40963;52.168;21.296;2023-02-28T03:08:12;56.30;;;17.52;;
55063;SDS011;40963;52.168;21.296;2023-02-28T03:10:40;51.10;;;17.35;;
55063;SDS011;40963;52.168;21.296;2023-02-28T03:15:57;72.13;;;20.85;;
55063;SDS011;40963;52.168;21.296;2023-02-28T03:18:32;60.55;;;21.23;;
55063;SDS011;40963;52.168;21.296;2023-02-28T03:23:42;57.65;;;21.85;;
55063;SDS011;40963;52.168;21.296;2023-02-28T03:26:20;61.30;;;21.60;;
55063;SDS011;40963;52.168;21.296;2023-02-28T03:34:10;64.95;;;20.80;;
55063;SDS011;40963;52.168;21.296;2023-02-28T03:36:47;51.10;;;19.98;;
55063;SDS011;40963;52.168;21.296;2023-02-28T03:39:19;49.72;;;18.98;;
55063;SDS011;40963;52.168;21.296;2023-02-28T03:41:49;59.50;;;18.73;;
55063;SDS011;40963;52.168;21.296;2023-02-28T03:44:29;42.92;;;17.05;;
55063;SDS011;40963;52.168;21.296;2023-02-28T03:47:17;51.80;;;16.50;;
55063;SDS011;40963;52.168;21.296;2023-02-28T03:49:53;51.72;;;17.95;;
55063;SDS011;40963;52.168;21.296;2023-02-28T03:52:40;49.25;;;17.58;;
55063;SDS011;40963;52.168;21.296;2023-02-28T03:55:20;60.22;;;19.70;;
55063;SDS011;40963;52.168;21.296;2023-02-28T04:00:40;43.78;;;17.42;;
55063;SDS011;40963;52.168;21.296;2023-02-28T04:03:11;45.85;;;16.70;;
55063;SDS011;40963;52.168;21.296;2023-02-28T04:05:53;49.15;;;18.85;;
55063;SDS011;40963;52.168;21.296;2023-02-28T04:08:20;53.30;;;16.08;;
55063;SDS011;40963;52.168;21.296;2023-02-28T04:10:48;46.70;;;17.50;;
55063;SDS011;40963;52.168;21.296;2023-02-28T04:13:21;51.80;;;18.08;;
55063;SDS011;40963;52.168;21.296;2023-02-28T04:15:46;44.90;;;19.60;;
55063;SDS011;40963;52.168;21.296;2023-02-28T04:18:12;45.35;;;17.00;;
55063;SDS011;40963;52.168;21.296;2023-02-28T04:20:38;46.58;;;16.45;;
55063;SDS011;40963;52.168;21.296;2023-02-28T04:23:03;50.67;;;19.45;;
55063;SDS011;40963;52.168;21.296;2023-02-28T04:25:29;59.65;;;18.58;;
55063;SDS011;40963;52.168;21.296;2023-02-28T04:27:55;43.83;;;16.25;;
55063;SDS011;40963;52.168;21.296;2023-02-28T04:30:20;48.00;;;17.83;;
55063;SDS011;40963;52.168;21.296;2023-02-28T04:32:46;57.88;;;19.45;;
55063;SDS011;40963;52.168;21.296;2023-02-28T04:35:12;49.50;;;17.15;;
55063;SDS011;40963;52.168;21.296;2023-02-28T04:37:37;44.78;;;16.17;;
55063;SDS011;40963;52.168;21.296;2023-02-28T04:40:03;40.33;;;17.15;;
55063;SDS011;40963;52.168;21.296;2023-02-28T04:42:29;47.33;;;18.65;;
55063;SDS011;40963;52.168;21.296;2023-02-28T04:45:01;44.25;;;17.30;;
55063;SDS011;40963;52.168;21.296;2023-02-28T04:47:27;40.95;;;17.02;;
55063;SDS011;40963;52.168;21.296;2023-02-28T04:49:53;34.92;;;14.98;;
55063;SDS011;40963;52.168;21.296;2023-02-28T04:52:19;48.92;;;17.92;;
55063;SDS011;40963;52.168;21.296;2023-02-28T04:54:44;51.40;;;17.30;;
55063;SDS011;40963;52.168;21.296;2023-02-28T04:57:10;40.45;;;14.70;;
55063;SDS011;40963;52.168;21.296;2023-02-28T04:59:36;50.28;;;17.80;;
55063;SDS011;40963;52.168;21.296;2023-02-28T05:02:01;48.42;;;18.52;;
55063;SDS011;40963;52.168;21.296;2023-02-28T05:04:31;53.83;;;17.60;;
55063;SDS011;40963;52.168;21.296;2023-02-28T05:06:59;45.92;;;16.73;;
55063;SDS011;40963;52.168;21.296;2023-02-28T05:09:25;44.45;;;16.88;;
55063;SDS011;40963;52.168;21.296;2023-02-28T05:11:51;46.13;;;17.35;;
55063;SDS011;40963;52.168;21.296;2023-02-28T05:14:17;37.83;;;16.58;;
55063;SDS011;40963;52.168;21.296;2023-02-28T05:16:42;52.67;;;17.33;;
55063;SDS011;40963;52.168;21.296;2023-02-28T05:19:08;47.15;;;17.73;;
55063;SDS011;40963;52.168;21.296;2023-02-28T05:21:35;43.38;;;17.45;;
55063;SDS011;40963;52.168;21.296;2023-02-28T05:24:06;46.17;;;16.90;;
55063;SDS011;40963;52.168;21.296;2023-02-28T05:26:36;46.47;;;17.45;;
55063;SDS011;40963;52.168;21.296;2023-02-28T05:29:03;49.85;;;17.00;;
55063;SDS011;40963;52.168;21.296;2023-02-28T05:31:28;40.58;;;17.23;;
55063;SDS011;40963;52.168;21.296;2023-02-28T05:33:54;55.58;;;18.10;;
55063;SDS011;40963;52.168;21.296;2023-02-28T05:36:20;46.55;;;17.63;;
55063;SDS011;40963;52.168;21.296;2023-02-28T05:38:49;47.08;;;18.33;;
55063;SDS011;40963;52.168;21.296;2023-02-28T05:41:16;50.92;;;18.15;;
55063;SDS011;40963;52.168;21.296;2023-02-28T05:43:42;43.25;;;15.10;;
55063;SDS011;40963;52.168;21.296;2023-02-28T05:46:09;47.20;;;17.10;;
55063;SDS011;40963;52.168;21.296;2023-02-28T05:48:36;32.95;;;15.02;;
55063;SDS011;40963;52.168;21.296;2023-02-28T05:51:04;40.20;;;15.70;;
55063;SDS011;40963;52.168;21.296;2023-02-28T05:53:31;54.60;;;17.55;;
55063;SDS011;40963;52.168;21.296;2023-02-28T05:55:57;49.03;;;19.17;;
55063;SDS011;40963;52.168;21.296;2023-02-28T05:58:23;40.20;;;16.08;;
55063;SDS011;40963;52.168;21.296;2023-02-28T06:01:00;48.83;;;16.65;;
55063;SDS011;40963;52.168;21.296;2023-02-28T06:03:26;39.92;;;16.58;;
55063;SDS011;40963;52.168;21.296;2023-02-28T06:05:52;46.40;;;16.85;;
55063;SDS011;40963;52.168;21.296;2023-02-28T06:08:18;52.10;;;18.70;;
55063;SDS011;40963;52.168;21.296;2023-02-28T06:10:44;46.00;;;17.38;;
55063;SDS011;40963;52.168;21.296;2023-02-28T06:13:10;42.08;;;17.55;;
55063;SDS011;40963;52.168;21.296;2023-02-28T06:15:36;31.58;;;14.30;;
55063;SDS011;40963;52.168;21.296;2023-02-28T06:18:02;44.30;;;16.70;;
55063;SDS011;40963;52.168;21.296;2023-02-28T06:20:29;38.97;;;15.77;;
55063;SDS011;40963;52.168;21.296;2023-02-28T06:22:56;53.17;;;18.35;;
55063;SDS011;40963;52.168;21.296;2023-02-28T06:25:23;43.50;;;17.55;;
55063;SDS011;40963;52.168;21.296;2023-02-28T06:27:50;45.17;;;15.27;;
55063;SDS011;40963;52.168;21.296;2023-02-28T06:30:15;55.15;;;18.20;;
55063;SDS011;40963;52.168;21.296;2023-02-28T06:32:41;39.97;;;16.65;;
55063;SDS011;40963;52.168;21.296;2023-02-28T06:35:07;54.60;;;18.83;;
55063;SDS011;40963;52.168;21.296;2023-02-28T06:37:33;48.60;;;17.70;;
55063;SDS011;40963;52.168;21.296;2023-02-28T06:39:59;43.65;;;15.85;;
55063;SDS011;40963;52.168;21.296;2023-02-28T06:42:24;58.92;;;20.13;;
55063;SDS011;40963;52.168;21.296;2023-02-28T06:44:56;50.97;;;20.17;;
55063;SDS011;40963;52.168;21.296;2023-02-28T06:47:22;50.65;;;19.67;;
55063;SDS011;40963;52.168;21.296;2023-02-28T06:49:48;47.53;;;19.00;;
55063;SDS011;40963;52.168;21.296;2023-02-28T06:52:14;53.67;;;21.92;;
55063;SDS011;40963;52.168;21.296;2023-02-28T06:54:40;47.70;;;18.52;;
55063;SDS011;40963;52.168;21.296;2023-02-28T06:57:06;66.60;;;20.65;;
55063;SDS011;40963;52.168;21.296;2023-02-28T06:59:32;49.10;;;17.92;;
55063;SDS011;40963;52.168;21.296;2023-02-28T07:02:00;59.67;;;22.08;;
55063;SDS011;40963;52.168;21.296;2023-02-28T07:04:27;47.05;;;19.35;;
55063;SDS011;40963;52.168;21.296;2023-02-28T07:06:53;50.70;;;19.27;;
55063;SDS011;40963;52.168;21.296;2023-02-28T07:09:21;53.20;;;18.55;;
55063;SDS011;40963;52.168;21.296;2023-02-28T07:11:47;50.25;;;19.23;;
55063;SDS011;40963;52.168;21.296;2023-02-28T07:14:13;45.83;;;19.45;;
55063;SDS011;40963;52.168;21.296;2023-02-28T07:16:38;51.58;;;17.90;;
55063;SDS011;40963;52.168;21.296;2023-02-28T07:19:04;46.45;;;18.42;;
55063;SDS011;40963;52.168;21.296;2023-02-28T07:21:30;50.83;;;19.13;;
55063;SDS011;40963;52.168;21.296;2023-02-28T07:23:55;69.82;;;22.10;;
55063;SDS011;40963;52.168;21.296;2023-02-28T07:26:21;48.03;;;19.92;;
55063;SDS011;40963;52.168;21.296;2023-02-28T07:28:48;44.28;;;18.45;;
55063;SDS011;40963;52.168;21.296;2023-02-28T07:31:13;48.25;;;15.45;;
55063;SDS011;40963;52.168;21.296;2023-02-28T07:33:40;36.83;;;14.68;;
55063;SDS011;40963;52.168;21.296;2023-02-28T07:36:07;39.90;;;14.70;;
55063;SDS011;40963;52.168;21.296;2023-02-28T07:38:35;32.78;;;13.73;;
55063;SDS011;40963;52.168;21.296;2023-02-28T07:41:02;35.97;;;13.82;;
55063;SDS011;40963;52.168;21.296;2023-02-28T07:43:31;28.10;;;11.55;;
55063;SDS011;40963;52.168;21.296;2023-02-28T07:46:01;31.15;;;12.48;;
55063;SDS011;40963;52.168;21.296;2023-02-28T07:48:31;21.33;;;10.15;;
55063;SDS011;40963;52.168;21.296;2023-02-28T07:50:57;23.08;;;9.73;;
55063;SDS011;40963;52.168;21.296;2023-02-28T07:53:24;28.90;;;11.25;;
55063;SDS011;40963;52.168;21.296;2023-02-28T07:55:50;28.80;;;9.60;;
55063;SDS011;40963;52.168;21.296;2023-02-28T07:58:16;19.75;;;9.07;;
55063;SDS011;40963;52.168;21.296;2023-02-28T08:00:41;10.70;;;4.97;;
55063;SDS011;40963;52.168;21.296;2023-02-28T08:03:09;15.98;;;8.32;;
55063;SDS011;40963;52.168;21.296;2023-02-28T08:05:40;16.23;;;7.60;;
55063;SDS011;40963;52.168;21.296;2023-02-28T08:08:06;16.45;;;7.13;;
55063;SDS011;40963;52.168;21.296;2023-02-28T08:10:32;16.00;;;7.25;;
55063;SDS011;40963;52.168;21.296;2023-02-28T08:12:58;14.48;;;6.95;;
55063;SDS011;40963;52.168;21.296;2023-02-28T08:15:24;18.02;;;6.50;;
55063;SDS011;40963;52.168;21.296;2023-02-28T08:17:49;21.45;;;6.03;;
55063;SDS011;40963;52.168;21.296;2023-02-28T08:20:15;15.38;;;6.80;;
55063;SDS011;40963;52.168;21.296;2023-02-28T08:22:41;16.50;;;7.20;;
55063;SDS011;40963;52.168;21.296;2023-02-28T08:25:07;10.30;;;5.63;;
55063;SDS011;40963;52.168;21.296;2023-02-28T08:27:33;12.23;;;6.22;;
55063;SDS011;40963;52.168;21.296;2023-02-28T08:29:59;14.43;;;6.95;;
55063;SDS011;40963;52.168;21.296;2023-02-28T08:32:24;15.57;;;6.18;;
55063;SDS011;40963;52.168;21.296;2023-02-28T08:34:50;11.15;;;6.85;;
55063;SDS011;40963;52.168;21.296;2023-02-28T08:37:16;18.88;;;6.30;;
55063;SDS011;40963;52.168;21.296;2023-02-28T08:39:42;15.77;;;5.68;;
55063;SDS011;40963;52.168;21.296;2023-02-28T08:42:08;11.57;;;6.45;;
55063;SDS011;40963;52.168;21.296;2023-02-28T08:44:33;12.05;;;6.50;;
55063;SDS011;40963;52.168;21.296;2023-02-28T08:46:59;11.38;;;6.35;;
55063;SDS011;40963;52.168;21.296;2023-02-28T08:49:25;15.60;;;7.28;;
55063;SDS011;40963;52.168;21.296;2023-02-28T08:51:50;12.48;;;6.68;;
55063;SDS011;40963;52.168;21.296;2023-02-28T08:54:16;14.57;;;6.32;;
55063;SDS011;40963;52.168;21.296;2023-02-28T08:56:44;15.40;;;7.57;;
55063;SDS011;40963;52.168;21.296;2023-02-28T08:59:11;12.60;;;6.70;;
55063;SDS011;40963;52.168;21.296;2023-02-28T09:01:37;17.15;;;7.45;;
55063;SDS011;40963;52.168;21.296;2023-02-28T09:04:03;18.70;;;7.75;;
55063;SDS011;40963;52.168;21.296;2023-02-28T09:06:29;15.23;;;6.78;;
55063;SDS011;40963;52.168;21.296;2023-02-28T09:08:57;14.95;;;7.88;;
55063;SDS011;40963;52.168;21.296;2023-02-28T09:11:24;13.82;;;7.93;;
55063;SDS011;40963;52.168;21.296;2023-02-28T09:13:50;13.55;;;7.07;;
55063;SDS011;40963;52.168;21.296;2023-02-28T09:16:16;14.73;;;6.80;;
55063;SDS011;40963;52.168;21.296;2023-02-28T09:18:42;17.73;;;7.30;;
55063;SDS011;40963;52.168;21.296;2023-02-28T09:21:10;11.30;;;6.30;;
55063;SDS011;40963;52.168;21.296;2023-02-28T09:23:39;15.05;;;7.22;;
55063;SDS011;40963;52.168;21.296;2023-02-28T09:26:06;14.38;;;6.90;;
55063;SDS011;40963;52.168;21.296;2023-02-28T09:28:32;14.05;;;6.70;;
55063;SDS011;40963;52.168;21.296;2023-02-28T09:30:57;16.77;;;6.97;;
55063;SDS011;40963;52.168;21.296;2023-02-28T09:33:24;15.63;;;7.53;;
55063;SDS011;40963;52.168;21.296;2023-02-28T09:35:50;16.85;;;8.10;;
55063;SDS011;40963;52.168;21.296;2023-02-28T09:38:22;14.00;;;8.00;;
55063;SDS011;40963;52.168;21.296;2023-02-28T09:40:53;15.68;;;6.85;;
55063;SDS011;40963;52.168;21.296;2023-02-28T09:43:23;17.55;;;8.15;;
55063;SDS011;40963;52.168;21.296;2023-02-28T09:45:52;11.55;;;5.88;;
55063;SDS011;40963;52.168;21.296;2023-02-28T09:48:34;14.50;;;7.50;;
55063;SDS011;40963;52.168;21.296;2023-02-28T09:51:05;15.20;;;7.22;;
55063;SDS011;40963;52.168;21.296;2023-02-28T09:53:40;15.23;;;7.10;;
55063;SDS011;40963;52.168;21.296;2023-02-28T09:56:10;16.95;;;7.75;;
55063;SDS011;40963;52.168;21.296;2023-02-28T09:58:56;19.73;;;8.15;;
55063;SDS011;40963;52.168;21.296;2023-02-28T10:04:38;11.25;;;6.10;;
55063;SDS011;40963;52.168;21.296;2023-02-28T10:07:16;15.65;;;6.00;;
55063;SDS011;40963;52.168;21.296;2023-02-28T10:09:49;13.32;;;7.03;;
55063;SDS011;40963;52.168;21.296;2023-02-28T10:12:18;17.30;;;8.60;;
55063;SDS011;40963;52.168;21.296;2023-02-28T10:14:46;19.15;;;7.60;;
55063;SDS011;40963;52.168;21.296;2023-02-28T10:17:15;17.58;;;8.02;;
55063;SDS011;40963;52.168;21.296;2023-02-28T10:22:53;17.13;;;7.22;;
55063;SDS011;40963;52.168;21.296;2023-02-28T10:25:38;19.65;;;6.28;;
55063;SDS011;40963;52.168;21.296;2023-02-28T10:30:32;39.00;;;9.45;;
55063;SDS011;40963;52.168;21.296;2023-02-28T10:32:59;15.15;;;7.05;;
55063;SDS011;40963;52.168;21.296;2023-02-28T10:35:26;15.35;;;6.60;;
55063;SDS011;40963;52.168;21.296;2023-02-28T10:37:56;17.05;;;8.75;;
55063;SDS011;40963;52.168;21.296;2023-02-28T10:43:02;17.88;;;8.77;;
55063;SDS011;40963;52.168;21.296;2023-02-28T10:45:30;14.25;;;8.30;;
55063;SDS011;40963;52.168;21.296;2023-02-28T10:50:43;21.80;;;10.20;;
55063;SDS011;40963;52.168;21.296;2023-02-28T11:01:24;15.20;;;8.40;;
55063;SDS011;40963;52.168;21.296;2023-02-28T11:03:51;17.52;;;7.78;;
55063;SDS011;40963;52.168;21.296;2023-02-28T11:06:25;14.88;;;8.20;;
55063;SDS011;40963;52.168;21.296;2023-02-28T11:08:56;15.70;;;8.27;;
55063;SDS011;40963;52.168;21.296;2023-02-28T11:11:26;14.07;;;7.15;;
55063;SDS011;40963;52.168;21.296;2023-02-28T11:13:54;14.02;;;7.13;;
55063;SDS011;40963;52.168;21.296;2023-02-28T11:16:34;13.00;;;7.25;;
55063;SDS011;40963;52.168;21.296;2023-02-28T11:19:02;18.63;;;7.70;;
55063;SDS011;40963;52.168;21.296;2023-02-28T11:21:31;12.48;;;6.95;;
55063;SDS011;40963;52.168;21.296;2023-02-28T11:24:01;7.53;;;4.78;;
55063;SDS011;40963;52.168;21.296;2023-02-28T11:26:43;13.10;;;6.72;;
55063;SDS011;40963;52.168;21.296;2023-02-28T11:29:21;7.57;;;5.20;;
55063;SDS011;40963;52.168;21.296;2023-02-28T11:34:36;15.98;;;6.55;;
55063;SDS011;40963;52.168;21.296;2023-02-28T11:37:03;12.95;;;6.78;;
55063;SDS011;40963;52.168;21.296;2023-02-28T11:39:34;18.17;;;7.80;;
55063;SDS011;40963;52.168;21.296;2023-02-28T12:01:21;15.77;;;8.05;;
55063;SDS011;40963;52.168;21.296;2023-02-28T12:06:38;14.93;;;7.28;;
55063;SDS011;40963;52.168;21.296;2023-02-28T12:11:56;9.10;;;5.40;;
55063;SDS011;40963;52.168;21.296;2023-02-28T12:20:25;14.40;;;7.80;;
55063;SDS011;40963;52.168;21.296;2023-02-28T12:26:02;17.42;;;9.13;;
55063;SDS011;40963;52.168;21.296;2023-02-28T12:28:43;16.67;;;8.13;;
55063;SDS011;40963;52.168;21.296;2023-02-28T12:31:16;19.27;;;7.35;;
55063;SDS011;40963;52.168;21.296;2023-02-28T12:33:45;17.67;;;7.30;;
55063;SDS011;40963;52.168;21.296;2023-02-28T12:36:16;15.77;;;8.40;;
55063;SDS011;40963;52.168;21.296;2023-02-28T12:41:56;15.20;;;8.50;;
55063;SDS011;40963;52.168;21.296;2023-02-28T12:44:42;14.63;;;8.68;;
55063;SDS011;40963;52.168;21.296;2023-02-28T12:47:15;17.80;;;10.20;;
55063;SDS011;40963;52.168;21.296;2023-02-28T12:49:52;17.67;;;9.75;;
55063;SDS011;40963;52.168;21.296;2023-02-28T12:52:31;15.13;;;8.60;;
55063;SDS011;40963;52.168;21.296;2023-02-28T13:09:04;17.40;;;9.77;;
55063;SDS011;40963;52.168;21.296;2023-02-28T13:11:50;21.33;;;9.23;;
55063;SDS011;40963;52.168;21.296;2023-02-28T13:19:40;18.27;;;9.15;;
55063;SDS011;40963;52.168;21.296;2023-02-28T13:22:19;18.85;;;9.20;;
55063;SDS011;40963;52.168;21.296;2023-02-28T13:25:02;18.77;;;9.25;;
55063;SDS011;40963;52.168;21.296;2023-02-28T13:27:49;15.07;;;8.50;;
55063;SDS011;40963;52.168;21.296;2023-02-28T13:33:36;15.70;;;7.38;;
55063;SDS011;40963;52.168;21.296;2023-02-28T13:36:25;16.95;;;7.53;;
55063;SDS011;40963;52.168;21.296;2023-02-28T13:46:31;21.45;;;7.88;;
55063;SDS011;40963;52.168;21.296;2023-02-28T13:49:40;20.23;;;9.40;;
55063;SDS011;40963;52.168;21.296;2023-02-28T13:51:48;23.80;;;9.65;;
55063;SDS011;40963;52.168;21.296;2023-02-28T13:54:28;18.27;;;9.18;;
55063;SDS011;40963;52.168;21.296;2023-02-28T14:05:23;25.98;;;8.65;;
55063;SDS011;40963;52.168;21.296;2023-02-28T14:07:53;19.58;;;7.75;;
55063;SDS011;40963;52.168;21.296;2023-02-28T14:10:23;21.30;;;9.18;;
55063;SDS011;40963;52.168;21.296;2023-02-28T14:15:27;25.48;;;10.27;;
55063;SDS011;40963;52.168;21.296;2023-02-28T14:17:56;14.57;;;7.57;;
55063;SDS011;40963;52.168;21.296;2023-02-28T14:20:25;21.75;;;10.10;;
55063;SDS011;40963;52.168;21.296;2023-02-28T14:30:52;19.50;;;10.23;;
55063;SDS011;40963;52.168;21.296;2023-02-28T14:33:26;19.17;;;9.70;;
55063;SDS011;40963;52.168;21.296;2023-02-28T14:36:00;26.73;;;11.68;;
55063;SDS011;40963;52.168;21.296;2023-02-28T14:38:41;22.58;;;9.35;;
55063;SDS011;40963;52.168;21.296;2023-02-28T14:41:33;17.52;;;8.55;;
55063;SDS011;40963;52.168;21.296;2023-02-28T14:44:02;20.42;;;9.35;;
55063;SDS011;40963;52.168;21.296;2023-02-28T14:46:50;25.08;;;9.60;;
55063;SDS011;40963;52.168;21.296;2023-02-28T14:51:47;22.23;;;8.68;;
55063;SDS011;40963;52.168;21.296;2023-02-28T14:54:15;21.48;;;10.45;;
55063;SDS011;40963;52.168;21.296;2023-02-28T14:56:43;12.32;;;6.25;;
55063;SDS011;40963;52.168;21.296;2023-02-28T14:59:24;20.30;;;8.98;;
55063;SDS011;40963;52.168;21.296;2023-02-28T15:02:12;18.75;;;9.55;;
55063;SDS011;40963;52.168;21.296;2023-02-28T15:04:39;24.10;;;9.50;;
55063;SDS011;40963;52.168;21.296;2023-02-28T15:07:07;22.40;;;12.27;;
55063;SDS011;40963;52.168;21.296;2023-02-28T15:09:38;23.60;;;9.35;;
55063;SDS011;40963;52.168;21.296;2023-02-28T15:12:04;27.33;;;8.90;;
55063;SDS011;40963;52.168;21.296;2023-02-28T15:14:30;24.45;;;10.90;;
55063;SDS011;40963;52.168;21.296;2023-02-28T15:17:01;30.80;;;10.52;;
55063;SDS011;40963;52.168;21.296;2023-02-28T15:19:31;25.67;;;10.55;;
55063;SDS011;40963;52.168;21.296;2023-02-28T15:22:00;19.45;;;10.02;;
55063;SDS011;40963;52.168;21.296;2023-02-28T15:24:39;23.83;;;10.57;;
55063;SDS011;40963;52.168;21.296;2023-02-28T15:27:12;24.60;;;9.75;;
55063;SDS011;40963;52.168;21.296;2023-02-28T15:29:46;22.10;;;10.15;;
55063;SDS011;40963;52.168;21.296;2023-02-28T15:32:37;23.48;;;10.63;;
55063;SDS011;40963;52.168;21.296;2023-02-28T15:37:57;22.98;;;11.65;;
55063;SDS011;40963;52.168;21.296;2023-02-28T15:40:43;20.52;;;8.60;;
55063;SDS011;40963;52.168;21.296;2023-02-28T15:45:58;22.63;;;9.55;;
55063;SDS011;40963;52.168;21.296;2023-02-28T15:48:42;23.98;;;9.40;;
55063;SDS011;40963;52.168;21.296;2023-02-28T15:51:23;32.28;;;9.18;;
55063;SDS011;40963;52.168;21.296;2023-02-28T15:53:55;27.60;;;9.20;;
55063;SDS011;40963;52.168;21.296;2023-02-28T15:56:27;18.35;;;9.15;;
55063;SDS011;40963;52.168;21.296;2023-02-28T15:58:59;21.63;;;10.48;;
55063;SDS011;40963;52.168;21.296;2023-02-28T16:01:34;36.42;;;13.13;;
55063;SDS011;40963;52.168;21.296;2023-02-28T16:04:12;40.75;;;13.90;;
55063;SDS011;40963;52.168;21.296;2023-02-28T16:06:43;24.75;;;10.50;;
55063;SDS011;40963;52.168;21.296;2023-02-28T16:09:29;32.47;;;9.93;;
55063;SDS011;40963;52.168;21.296;2023-02-28T16:11:56;29.05;;;10.38;;
55063;SDS011;40963;52.168;21.296;2023-02-28T16:14:27;24.08;;;9.77;;
55063;SDS011;40963;52.168;21.296;2023-02-28T16:16:57;24.50;;;10.35;;
55063;SDS011;40963;52.168;21.296;2023-02-28T16:19:29;42.97;;;11.38;;
55063;SDS011;40963;52.168;21.296;2023-02-28T16:21:55;38.13;;;11.88;;
55063;SDS011;40963;52.168;21.296;2023-02-28T16:24:21;22.58;;;9.90;;
55063;SDS011;40963;52.168;21.296;2023-02-28T16:26:48;27.08;;;9.93;;
55063;SDS011;40963;52.168;21.296;2023-02-28T16:29:38;22.80;;;9.63;;
55063;SDS011;40963;52.168;21.296;2023-02-28T16:32:06;17.77;;;9.18;;
55063;SDS011;40963;52.168;21.296;2023-02-28T16:34:31;23.05;;;10.07;;
55063;SDS011;40963;52.168;21.296;2023-02-28T16:36:57;33.28;;;9.45;;
55063;SDS011;40963;52.168;21.296;2023-02-28T16:39:23;23.05;;;11.02;;
55063;SDS011;40963;52.168;21.296;2023-02-28T16:41:49;27.95;;;10.45;;
55063;SDS011;40963;52.168;21.296;2023-02-28T16:46:51;25.48;;;9.65;;
55063;SDS011;40963;52.168;21.296;2023-02-28T16:49:16;26.60;;;10.38;;
55063;SDS011;40963;52.168;21.296;2023-02-28T16:51:42;25.55;;;9.98;;
55063;SDS011;40963;52.168;21.296;2023-02-28T16:54:08;22.92;;;9.57;;
55063;SDS011;40963;52.168;21.296;2023-02-28T16:56:34;22.65;;;9.35;;
55063;SDS011;40963;52.168;21.296;2023-02-28T16:59:00;41.60;;;10.57;;
55063;SDS011;40963;52.168;21.296;2023-02-28T17:01:27;35.60;;;10.73;;
55063;SDS011;40963;52.168;21.296;2023-02-28T17:03:54;22.27;;;9.27;;
55063;SDS011;40963;52.168;21.296;2023-02-28T17:06:24;28.40;;;12.02;;